Peter Henderson

Olheiro-Chefe - Wolverhampton
3 Dez 2028
Domingo
Processo

Personalidade

Adaptabilidade (20) Ambição (4) Controvérsia (11) Lealdade (14) Pressão (17) Profissionalismo (5) Espírito Esportivo (5) Temperamento (6)

Perfil

Estilo de Treinamento Democrático
Licença Continental A
Determinação 6
Gestão de Pessoas 14
Motivação 5
Disciplina 8
Satisfação no Trabalho
100%
Fadiga
0%
Função Olheiro-Chefe
Salário 72.7K p/s
Contrato 14.03.2030

Desempenho

Comportamento Bom
Eficácia do Treinamento
49%
Desenvolvimento do Jogador
40%
Prevenção de Lesões
45%
Implementação Tática
40%

Eventos Recentes

Participou de uma reunião de recrutamento agora
Participou de uma reunião de recrutamento agora
Recomendou um alvo de transferência agora
Participou de uma reunião de recrutamento 7d atrás
Participou de uma reunião de recrutamento 7d atrás
Recomendou um alvo de transferência 7d atrás
Recomendou um alvo de transferência 7d atrás
Recomendou um alvo de transferência 7d atrás

Monitorando agora

110
Jogador Clube Status Habilidade Confiança Observado Última observação Último voto
Daniel Banjaqui Benfica Ativo 134 / 126 40% 1 19.07.2028 -
Christos Mouzakitis Hull City Ativo 131 / 137 40% 1 19.07.2028 -
Gabe Forsyth Colchester United Ativo 124 / 118 40% 1 19.07.2028 -
João Pedro Chelsea Ativo 164 / 160 40% 3 19.06.2028 -
Tyrese Campbell Sheffield United Ativo 138 / 126 40% 2 19.06.2028 -
Jayden Danns Bradford City Ativo 145 / 147 40% 1 19.06.2028 -
Jan Bürger Northampton Town Ativo 123 / 127 40% 1 01.06.2028 -
William Osula Wrexham Ativo 130 / 140 40% 1 18.01.2028 -
Callum O'Hare Sheffield United Ativo 138 / 133 40% 1 18.01.2028 -
James Trafford Leeds United Ativo 152 / 157 40% 4 11.01.2028 -
Robin Roefs Sunderland Ativo 144 / 152 40% 4 11.01.2028 -
Gabri Veiga Getafe Ativo 147 / 149 69% 1 01.01.2028 -
Muhammadyusuf Sobirov Bunyodkor Ativo 114 / 118 40% 1 31.12.2027 -
Luka Vušković Tottenham Ativo 142 / 155 40% 1 02.08.2027 -
Franculino Brighton Ativo 134 / 153 40% 10 06.07.2027 -
Stefanos Tzimas Brighton Ativo 138 / 151 40% 3 05.07.2027 -
Thierno Barry Manchester United Ativo 135 / 147 40% 12 04.07.2027 -
Mohamed-Ali Cho Hull City Ativo 136 / 140 40% 10 03.07.2027 -
Liam Delap Manchester United Ativo 146 / 153 40% 16 02.07.2027 -
Fábio Carvalho Brentford Ativo 146 / 144 40% 16 24.06.2027 -
Exequiel Palacios Lazio Ativo 157 / 157 66% 1 01.06.2027 Aprovar
Jakub Kiwior Athletic Bilbao Ativo 156 / 156 69% 1 01.06.2027 Aprovar
Radek Vítek Middlesbrough Ativo 132 / 140 40% 3 31.05.2027 -
Eduardo Fernandes Benfica Ativo 102 / 118 40% 1 30.05.2027 -
Mohamadou Kanté Crawley Town Ativo 113 / 116 40% 1 30.05.2027 -
Ethan Williams Peterborough United Ativo 110 / 126 40% 1 27.05.2027 -
Gomolemo Kekana Maritzburg United Ativo 103 / 102 40% 1 27.05.2027 -
Emanuel Emegha Chelsea Ativo 149 / 148 40% 11 25.05.2027 -
Mateus Mané Burnley Ativo 141 / 130 40% 2 25.05.2027 -
Morgan Rogers Chelsea Ativo 169 / 165 40% 10 21.05.2027 -
Mathys Tel Tottenham Ativo 150 / 141 40% 10 18.05.2027 -
Bazoumana Touré Newcastle United Ativo 144 / 152 40% 1 18.05.2027 -
Alphadjo Cissé Lecce Ativo 117 / 125 40% 1 18.05.2027 -
Eduardo Lozano Botafogo Ativo 144 / 142 40% 5 26.04.2027 -
Joe Gelhardt Hull City Ativo 130 / 133 40% 3 24.04.2027 -
Georginio Rutter Brighton Ativo 142 / 146 40% 6 11.04.2027 -
Exequiel Zeballos Bournemouth Ativo 127 / 131 40% 6 06.04.2027 -
Pablo Felipe West Ham United Ativo 127 / 130 40% 2 09.02.2027 -
Lorenzo Colombo Genoa Ativo 127 / 140 40% 1 26.01.2027 -
Brian Brobbey Sunderland Ativo 148 / 141 40% 1 15.01.2027 -
Lucas Bergström Union Berlin Ativo 115 / 124 40% 4 30.12.2026 -
Ľubomír Belko Viking Ativo 111 / 114 40% 2 29.12.2026 -
David Ozoh Derby County Perdido 119 / 130 40% 1 29.12.2026 -
Oliver Dovin Coventry City Ativo 120 / 137 40% 1 27.12.2026 -
Stanislav Agkatsev Brentford Ativo 137 / 134 40% 3 26.12.2026 -
Marvin Keller Chelsea Ativo 142 / 137 40% 5 26.12.2026 -
Federico Chiesa Liverpool Ativo 154 / 161 40% 1 26.12.2026 -
Moisés Caicedo Chelsea Ativo 161 / 166 40% 5 24.12.2026 -
Savinho Tottenham Ativo 166 / 168 40% 1 23.12.2026 -
Tyrhys Dolan Espanyol Ativo 142 / 139 40% 1 23.12.2026 -
Melker Ellborg Sunderland Ativo 121 / 114 40% 3 22.12.2026 -
Sergio Barlocco Trento Ativo 98 / 117 40% 2 18.12.2026 -
Levan Tandilashvili Egnatia Rrogozhinë Ativo 102 / 103 40% 1 15.12.2026 -
Cheveyo Tsawa Club Brugge Ativo 114 / 118 40% 1 13.12.2026 -
Kirill Glebov CSKA Moscow Ativo 131 / 128 40% 1 13.12.2026 -
Zion Suzuki Aston Villa Ativo 150 / 137 40% 2 09.12.2026 -
Shahriar Rezaeian Siah Jamegan Ativo 92 / 113 40% 2 09.12.2026 -
Alexandr Koryakin Krasnodar Ativo 111 / 109 40% 2 08.12.2026 -
Heorhii Yermakov Metalist Ativo 109 / 123 40% 1 08.12.2026 -
Jarrod Bowen West Ham United Ativo 154 / 159 40% 1 05.12.2026 -
Noni Madueke Arsenal Ativo 161 / 155 40% 2 03.12.2026 -
Philippe Ndinga Philadelphia Union Ativo 118 / 118 40% 1 02.12.2026 -
Diego Enríquez Sporting Cristal Ativo 118 / 131 40% 1 30.11.2026 -
Murphy Cooper Plymouth Argyle Ativo 103 / 110 40% 3 29.11.2026 -
Josh Keeley Luton Town Ativo 121 / 122 40% 2 22.11.2026 -
Amad Manchester United Ativo 148 / 161 40% 1 22.11.2026 -
Iliman N'Diaye Everton Ativo 163 / 157 40% 2 21.11.2026 Mais informações
Florian Wirtz Liverpool Ativo 174 / 174 40% 1 21.11.2026 -
Chemsdine Talbi Sunderland Ativo 130 / 136 40% 1 17.11.2026 -
Filip Marschall Stevenage Ativo 105 / 122 40% 1 16.11.2026 -
Cody Gakpo Liverpool Ativo 162 / 162 40% 1 14.11.2026 -
Hugo Ekitiké Liverpool Ativo 167 / 157 40% 1 08.11.2026 -
Strahinja Manojlović Radnicki Nis Ativo 111 / 117 40% 2 06.11.2026 -
Simphiwe Selepe Orlando Pirates Ativo 124 / 116 40% 1 06.11.2026 -
Reece Braithwaite Bloemfontein Celtic Ativo 102 / 117 40% 1 06.11.2026 -
Ottó Hindrich Legia Ativo 111 / 111 40% 1 06.11.2026 -
Vladimir Nazarov Pakhtakor Ativo 97 / 122 40% 1 04.11.2026 -
Olivier Boscagli Brighton Ativo 138 / 153 40% 3 02.11.2026 -
Matheus Cunha Manchester United Ativo 155 / 157 40% 1 02.11.2026 -
Ian Maatsen Aston Villa Ativo 141 / 150 40% 2 30.10.2026 -
Reece James Chelsea Ativo 176 / 180 40% 2 29.10.2026 -
Quinten Timber Crystal Palace Ativo 141 / 140 40% 1 29.10.2026 -
Mats Wieffer Brighton Ativo 151 / 153 40% 1 28.10.2026 -
Boubacar Kamara Aston Villa Ativo 166 / 170 40% 2 27.10.2026 -
Sven Botman Newcastle United Ativo 162 / 149 40% 1 26.10.2026 -
Kenny Tete Fulham Ativo 144 / 141 40% 1 26.10.2026 -
Cemran Dansin Orlando Pirates Ativo 100 / 107 40% 2 23.10.2026 -
Antonee Robinson Fulham Ativo 151 / 159 40% 2 23.10.2026 -
Dominik Szoboszlai Liverpool Ativo 174 / 167 40% 1 23.10.2026 -
Yehor Yarmoliuk Brentford Ativo 146 / 146 40% 1 18.10.2026 -
Levi Colwill Chelsea Ativo 162 / 169 40% 3 17.10.2026 -
Gabriel Arsenal Ativo 162 / 174 40% 1 17.10.2026 -
Leon Goretzka Aston Villa Ativo 149 / 156 40% 1 16.10.2026 -
Malo Gusto Chelsea Ativo 155 / 155 40% 1 11.10.2026 -
Martín Zubimendi Arsenal Ativo 157 / 153 40% 1 11.10.2026 -
Novak Mićović LA Galaxy Ativo 96 / 127 40% 1 10.10.2026 -
William Saliba Arsenal Ativo 178 / 180 40% 1 08.10.2026 -
Wesley Fofana Chelsea Ativo 154 / 162 40% 1 28.09.2026 -
Jarrad Branthwaite Everton Ativo 150 / 151 40% 1 25.09.2026 -
Enzo Fernández Manchester City Ativo 169 / 169 40% 1 23.09.2026 -
Ryan Gravenberch Liverpool Ativo 167 / 165 40% 1 22.09.2026 -
Michael Kayode Brentford Ativo 134 / 138 40% 1 20.09.2026 -
Alex Scott Bournemouth Ativo 155 / 151 40% 1 18.09.2026 -
Joško Gvardiol Manchester City Ativo 152 / 162 40% 1 18.09.2026 -
Adam Wharton Crystal Palace Ativo 153 / 164 40% 1 17.09.2026 -
Destiny Udogie Tottenham Ativo 147 / 141 40% 1 17.09.2026 -
Youri Tielemans Manchester United Ativo 161 / 155 40% 1 12.09.2026 -
Marc Guéhi Manchester City Ativo 169 / 160 40% 1 11.09.2026 -
Granit Xhaka Sunderland Ativo 151 / 153 62% 1 31.08.2026 Aprovar
Jérémy Doku Manchester City Ativo 155 / 155 40% 1 03.08.2026 -